sensor_id;sensor_type;location;lat;lon;timestamp;temperature;humidity
21508;DHT22;10915;54.352;9.074;2023-11-18T00:01:24;5.10;99.90
21508;DHT22;10915;54.352;9.074;2023-11-18T00:03:49;5.20;99.90
21508;DHT22;10915;54.352;9.074;2023-11-18T00:06:15;5.30;99.90
21508;DHT22;10915;54.352;9.074;2023-11-18T00:08:41;5.30;99.90
21508;DHT22;10915;54.352;9.074;2023-11-18T00:11:06;5.30;99.90
21508;DHT22;10915;54.352;9.074;2023-11-18T00:13:32;5.20;99.90
21508;DHT22;10915;54.352;9.074;2023-11-18T00:15:58;5.30;99.90
21508;DHT22;10915;54.352;9.074;2023-11-18T00:18:24;5.30;99.90
21508;DHT22;10915;54.352;9.074;2023-11-18T00:20:49;5.40;99.90
21508;DHT22;10915;54.352;9.074;2023-11-18T00:23:16;5.50;99.90
21508;DHT22;10915;54.352;9.074;2023-11-18T00:25:42;5.50;99.90
21508;DHT22;10915;54.352;9.074;2023-11-18T00:28:11;5.60;99.90
21508;DHT22;10915;54.352;9.074;2023-11-18T00:30:37;5.60;99.90
21508;DHT22;10915;54.352;9.074;2023-11-18T00:33:02;5.50;99.90
21508;DHT22;10915;54.352;9.074;2023-11-18T00:35:28;5.40;99.90
21508;DHT22;10915;54.352;9.074;2023-11-18T00:38:00;5.40;99.90
21508;DHT22;10915;54.352;9.074;2023-11-18T00:40:26;5.40;99.90
21508;DHT22;10915;54.352;9.074;2023-11-18T00:42:52;5.40;99.90
21508;DHT22;10915;54.352;9.074;2023-11-18T00:45:17;5.50;99.90
21508;DHT22;10915;54.352;9.074;2023-11-18T00:47:44;5.60;99.90
21508;DHT22;10915;54.352;9.074;2023-11-18T00:50:10;5.60;99.90
21508;DHT22;10915;54.352;9.074;2023-11-18T00:52:36;5.40;99.90
21508;DHT22;10915;54.352;9.074;2023-11-18T00:55:07;5.40;99.90
21508;DHT22;10915;54.352;9.074;2023-11-18T00:57:34;5.50;99.90
21508;DHT22;10915;54.352;9.074;2023-11-18T01:00:00;5.50;99.90
21508;DHT22;10915;54.352;9.074;2023-11-18T01:02:25;5.60;99.90
21508;DHT22;10915;54.352;9.074;2023-11-18T01:04:52;5.60;99.90
21508;DHT22;10915;54.352;9.074;2023-11-18T01:07:17;5.60;99.90
21508;DHT22;10915;54.352;9.074;2023-11-18T01:09:43;5.60;99.90
21508;DHT22;10915;54.352;9.074;2023-11-18T01:12:08;5.60;99.90
21508;DHT22;10915;54.352;9.074;2023-11-18T01:14:39;5.60;99.90
21508;DHT22;10915;54.352;9.074;2023-11-18T01:17:08;5.50;99.90
21508;DHT22;10915;54.352;9.074;2023-11-18T01:19:37;5.50;99.90
21508;DHT22;10915;54.352;9.074;2023-11-18T01:22:03;5.50;99.90
21508;DHT22;10915;54.352;9.074;2023-11-18T01:24:31;5.50;99.90
21508;DHT22;10915;54.352;9.074;2023-11-18T01:26:58;5.50;99.90
21508;DHT22;10915;54.352;9.074;2023-11-18T01:29:24;5.50;99.90
21508;DHT22;10915;54.352;9.074;2023-11-18T01:31:50;5.50;99.90
21508;DHT22;10915;54.352;9.074;2023-11-18T01:34:16;5.50;99.90
21508;DHT22;10915;54.352;9.074;2023-11-18T01:36:42;5.50;99.90
21508;DHT22;10915;54.352;9.074;2023-11-18T01:39:09;5.50;99.90
21508;DHT22;10915;54.352;9.074;2023-11-18T01:41:35;5.50;99.90
21508;DHT22;10915;54.352;9.074;2023-11-18T01:44:01;5.50;99.90
21508;DHT22;10915;54.352;9.074;2023-11-18T01:46:27;5.50;99.90
21508;DHT22;10915;54.352;9.074;2023-11-18T01:48:55;5.50;99.90
21508;DHT22;10915;54.352;9.074;2023-11-18T01:51:21;5.50;99.90
21508;DHT22;10915;54.352;9.074;2023-11-18T01:53:49;5.50;99.90
21508;DHT22;10915;54.352;9.074;2023-11-18T01:56:15;5.50;99.90
21508;DHT22;10915;54.352;9.074;2023-11-18T01:58:41;5.50;99.90
21508;DHT22;10915;54.352;9.074;2023-11-18T02:01:07;5.50;99.90
21508;DHT22;10915;54.352;9.074;2023-11-18T02:03:36;5.40;99.90
21508;DHT22;10915;54.352;9.074;2023-11-18T02:06:04;5.40;99.90
21508;DHT22;10915;54.352;9.074;2023-11-18T02:08:30;5.30;99.90
21508;DHT22;10915;54.352;9.074;2023-11-18T02:11:20;5.30;99.90
21508;DHT22;10915;54.352;9.074;2023-11-18T02:13:52;5.20;99.90
21508;DHT22;10915;54.352;9.074;2023-11-18T02:16:20;5.30;99.90
21508;DHT22;10915;54.352;9.074;2023-11-18T02:18:47;5.20;99.90
21508;DHT22;10915;54.352;9.074;2023-11-18T02:21:15;5.20;99.90
21508;DHT22;10915;54.352;9.074;2023-11-18T02:23:41;5.20;99.90
21508;DHT22;10915;54.352;9.074;2023-11-18T02:26:08;5.30;99.90
21508;DHT22;10915;54.352;9.074;2023-11-18T02:28:35;5.20;99.90
21508;DHT22;10915;54.352;9.074;2023-11-18T02:31:14;5.20;99.90
21508;DHT22;10915;54.352;9.074;2023-11-18T02:34:05;5.20;99.90
21508;DHT22;10915;54.352;9.074;2023-11-18T02:36:39;5.20;99.90
21508;DHT22;10915;54.352;9.074;2023-11-18T02:39:09;5.20;99.90
21508;DHT22;10915;54.352;9.074;2023-11-18T02:41:38;5.20;99.90
21508;DHT22;10915;54.352;9.074;2023-11-18T02:44:06;5.20;99.90
21508;DHT22;10915;54.352;9.074;2023-11-18T02:46:36;5.20;99.90
21508;DHT22;10915;54.352;9.074;2023-11-18T02:49:03;5.20;99.90
21508;DHT22;10915;54.352;9.074;2023-11-18T02:51:29;5.20;99.90
21508;DHT22;10915;54.352;9.074;2023-11-18T02:53:59;5.20;99.90
21508;DHT22;10915;54.352;9.074;2023-11-18T02:56:25;5.20;99.90
21508;DHT22;10915;54.352;9.074;2023-11-18T02:58:50;5.20;99.90
21508;DHT22;10915;54.352;9.074;2023-11-18T03:01:16;5.20;99.90
21508;DHT22;10915;54.352;9.074;2023-11-18T03:03:41;5.20;99.90
21508;DHT22;10915;54.352;9.074;2023-11-18T03:06:08;5.20;99.90
21508;DHT22;10915;54.352;9.074;2023-11-18T03:08:36;5.20;99.90
21508;DHT22;10915;54.352;9.074;2023-11-18T03:11:02;5.20;99.90
21508;DHT22;10915;54.352;9.074;2023-11-18T03:13:30;5.10;99.90
21508;DHT22;10915;54.352;9.074;2023-11-18T03:15:55;5.20;99.90
21508;DHT22;10915;54.352;9.074;2023-11-18T03:18:21;5.20;99.90
21508;DHT22;10915;54.352;9.074;2023-11-18T03:20:46;5.20;99.90
21508;DHT22;10915;54.352;9.074;2023-11-18T03:23:14;5.20;99.90
21508;DHT22;10915;54.352;9.074;2023-11-18T03:25:39;5.20;99.90
21508;DHT22;10915;54.352;9.074;2023-11-18T03:28:05;5.20;99.90
21508;DHT22;10915;54.352;9.074;2023-11-18T03:30:32;5.20;99.90
21508;DHT22;10915;54.352;9.074;2023-11-18T03:32:57;5.20;99.90
21508;DHT22;10915;54.352;9.074;2023-11-18T03:35:23;5.20;99.90
21508;DHT22;10915;54.352;9.074;2023-11-18T03:37:49;5.20;99.90
21508;DHT22;10915;54.352;9.074;2023-11-18T03:40:15;5.20;99.90
21508;DHT22;10915;54.352;9.074;2023-11-18T03:42:44;5.20;99.90
21508;DHT22;10915;54.352;9.074;2023-11-18T03:45:11;5.20;99.90
21508;DHT22;10915;54.352;9.074;2023-11-18T03:47:39;5.10;99.90
21508;DHT22;10915;54.352;9.074;2023-11-18T03:50:05;5.10;99.90
21508;DHT22;10915;54.352;9.074;2023-11-18T03:52:35;5.20;99.90
21508;DHT22;10915;54.352;9.074;2023-11-18T03:55:03;5.20;99.90
21508;DHT22;10915;54.352;9.074;2023-11-18T03:57:28;5.10;99.90
21508;DHT22;10915;54.352;9.074;2023-11-18T03:59:54;5.10;99.90
21508;DHT22;10915;54.352;9.074;2023-11-18T04:02:20;5.10;99.90
21508;DHT22;10915;54.352;9.074;2023-11-18T04:04:46;5.20;99.90
21508;DHT22;10915;54.352;9.074;2023-11-18T04:07:11;5.10;99.90
21508;DHT22;10915;54.352;9.074;2023-11-18T04:09:37;5.20;99.90
21508;DHT22;10915;54.352;9.074;2023-11-18T04:12:03;5.20;99.90
21508;DHT22;10915;54.352;9.074;2023-11-18T04:14:30;5.20;99.90
21508;DHT22;10915;54.352;9.074;2023-11-18T04:16:57;5.20;99.90
21508;DHT22;10915;54.352;9.074;2023-11-18T04:19:23;5.20;99.90
21508;DHT22;10915;54.352;9.074;2023-11-18T04:21:48;5.20;99.90
21508;DHT22;10915;54.352;9.074;2023-11-18T04:24:15;5.10;99.90
21508;DHT22;10915;54.352;9.074;2023-11-18T04:26:41;5.20;99.90
21508;DHT22;10915;54.352;9.074;2023-11-18T04:29:06;5.10;99.90
21508;DHT22;10915;54.352;9.074;2023-11-18T04:31:32;5.10;99.90
21508;DHT22;10915;54.352;9.074;2023-11-18T04:33:59;5.10;99.90
21508;DHT22;10915;54.352;9.074;2023-11-18T04:36:25;5.00;99.90
21508;DHT22;10915;54.352;9.074;2023-11-18T04:38:52;4.90;99.90
21508;DHT22;10915;54.352;9.074;2023-11-18T04:41:17;4.90;99.90
21508;DHT22;10915;54.352;9.074;2023-11-18T04:43:43;4.90;99.90
21508;DHT22;10915;54.352;9.074;2023-11-18T04:46:08;4.90;99.90
21508;DHT22;10915;54.352;9.074;2023-11-18T04:48:34;4.90;99.90
21508;DHT22;10915;54.352;9.074;2023-11-18T04:51:00;4.90;99.90
21508;DHT22;10915;54.352;9.074;2023-11-18T04:53:26;5.00;99.90
21508;DHT22;10915;54.352;9.074;2023-11-18T04:55:52;4.90;99.90
21508;DHT22;10915;54.352;9.074;2023-11-18T04:58:18;4.90;99.90
21508;DHT22;10915;54.352;9.074;2023-11-18T05:00:44;4.90;99.90
21508;DHT22;10915;54.352;9.074;2023-11-18T05:03:10;4.90;99.90
21508;DHT22;10915;54.352;9.074;2023-11-18T05:05:36;4.90;99.90
21508;DHT22;10915;54.352;9.074;2023-11-18T05:08:05;4.80;99.90
21508;DHT22;10915;54.352;9.074;2023-11-18T05:10:34;4.70;99.90
21508;DHT22;10915;54.352;9.074;2023-11-18T05:13:00;4.60;99.90
21508;DHT22;10915;54.352;9.074;2023-11-18T05:15:26;4.60;99.90
21508;DHT22;10915;54.352;9.074;2023-11-18T05:17:52;4.70;99.90
21508;DHT22;10915;54.352;9.074;2023-11-18T05:20:19;4.70;99.90
21508;DHT22;10915;54.352;9.074;2023-11-18T05:22:44;4.60;99.90
21508;DHT22;10915;54.352;9.074;2023-11-18T05:25:10;4.60;99.90
21508;DHT22;10915;54.352;9.074;2023-11-18T05:27:36;4.50;99.90
21508;DHT22;10915;54.352;9.074;2023-11-18T05:30:02;4.50;99.90
21508;DHT22;10915;54.352;9.074;2023-11-18T05:32:28;4.40;99.90
21508;DHT22;10915;54.352;9.074;2023-11-18T05:34:54;4.30;99.90
21508;DHT22;10915;54.352;9.074;2023-11-18T05:37:21;4.40;99.90
21508;DHT22;10915;54.352;9.074;2023-11-18T05:39:48;4.30;99.90
21508;DHT22;10915;54.352;9.074;2023-11-18T05:42:18;4.30;99.90
21508;DHT22;10915;54.352;9.074;2023-11-18T05:44:44;4.20;99.90
21508;DHT22;10915;54.352;9.074;2023-11-18T05:47:10;4.20;99.90
21508;DHT22;10915;54.352;9.074;2023-11-18T05:49:39;4.10;99.90
21508;DHT22;10915;54.352;9.074;2023-11-18T05:52:05;4.00;99.90
21508;DHT22;10915;54.352;9.074;2023-11-18T05:54:31;4.00;99.90
21508;DHT22;10915;54.352;9.074;2023-11-18T05:56:56;4.00;99.90
21508;DHT22;10915;54.352;9.074;2023-11-18T05:59:25;4.00;99.90
21508;DHT22;10915;54.352;9.074;2023-11-18T06:01:52;3.90;99.90
21508;DHT22;10915;54.352;9.074;2023-11-18T06:04:18;3.80;99.90
21508;DHT22;10915;54.352;9.074;2023-11-18T06:06:43;3.70;99.90
21508;DHT22;10915;54.352;9.074;2023-11-18T06:09:09;3.70;99.90
21508;DHT22;10915;54.352;9.074;2023-11-18T06:11:43;3.70;99.90
21508;DHT22;10915;54.352;9.074;2023-11-18T06:14:10;3.60;99.90
21508;DHT22;10915;54.352;9.074;2023-11-18T06:16:38;3.50;99.90
21508;DHT22;10915;54.352;9.074;2023-11-18T06:19:05;3.60;99.90
21508;DHT22;10915;54.352;9.074;2023-11-18T06:21:31;3.50;99.90
21508;DHT22;10915;54.352;9.074;2023-11-18T06:23:58;3.40;99.90
21508;DHT22;10915;54.352;9.074;2023-11-18T06:26:24;3.50;99.90
21508;DHT22;10915;54.352;9.074;2023-11-18T06:28:53;3.50;99.90
21508;DHT22;10915;54.352;9.074;2023-11-18T06:31:19;3.60;99.90
21508;DHT22;10915;54.352;9.074;2023-11-18T06:33:47;3.60;99.90
21508;DHT22;10915;54.352;9.074;2023-11-18T06:38:49;3.50;99.90
21508;DHT22;10915;54.352;9.074;2023-11-18T06:41:16;3.60;99.90
21508;DHT22;10915;54.352;9.074;2023-11-18T06:43:44;3.50;99.90
21508;DHT22;10915;54.352;9.074;2023-11-18T06:46:30;3.60;99.90
21508;DHT22;10915;54.352;9.074;2023-11-18T06:49:01;3.60;99.90
21508;DHT22;10915;54.352;9.074;2023-11-18T06:51:30;3.70;99.90
21508;DHT22;10915;54.352;9.074;2023-11-18T06:53:57;3.70;99.90
21508;DHT22;10915;54.352;9.074;2023-11-18T06:56:27;3.80;99.90
21508;DHT22;10915;54.352;9.074;2023-11-18T06:58:53;3.80;99.90
21508;DHT22;10915;54.352;9.074;2023-11-18T07:01:20;3.80;99.90
21508;DHT22;10915;54.352;9.074;2023-11-18T07:03:47;3.80;99.90
21508;DHT22;10915;54.352;9.074;2023-11-18T07:06:19;3.80;99.90
21508;DHT22;10915;54.352;9.074;2023-11-18T07:08:49;3.80;99.90
21508;DHT22;10915;54.352;9.074;2023-11-18T07:11:15;3.80;99.90
21508;DHT22;10915;54.352;9.074;2023-11-18T07:13:40;3.70;99.90
21508;DHT22;10915;54.352;9.074;2023-11-18T07:16:07;3.80;99.90
21508;DHT22;10915;54.352;9.074;2023-11-18T07:18:34;3.70;99.90
21508;DHT22;10915;54.352;9.074;2023-11-18T07:21:00;3.80;99.90
21508;DHT22;10915;54.352;9.074;2023-11-18T07:23:26;3.80;99.90
21508;DHT22;10915;54.352;9.074;2023-11-18T07:25:52;3.70;99.90
21508;DHT22;10915;54.352;9.074;2023-11-18T07:28:18;3.60;99.90
21508;DHT22;10915;54.352;9.074;2023-11-18T07:30:45;3.60;99.90
21508;DHT22;10915;54.352;9.074;2023-11-18T07:33:19;3.60;99.90
21508;DHT22;10915;54.352;9.074;2023-11-18T07:35:47;3.80;99.90
21508;DHT22;10915;54.352;9.074;2023-11-18T07:38:16;3.80;99.90
21508;DHT22;10915;54.352;9.074;2023-11-18T07:40:45;3.90;99.90
21508;DHT22;10915;54.352;9.074;2023-11-18T07:43:14;4.00;99.90
21508;DHT22;10915;54.352;9.074;2023-11-18T07:45:41;4.10;99.90
21508;DHT22;10915;54.352;9.074;2023-11-18T07:48:08;4.20;99.90
21508;DHT22;10915;54.352;9.074;2023-11-18T07:50:38;4.30;99.90
21508;DHT22;10915;54.352;9.074;2023-11-18T07:53:06;4.30;99.90
21508;DHT22;10915;54.352;9.074;2023-11-18T07:55:33;4.40;99.90
21508;DHT22;10915;54.352;9.074;2023-11-18T07:58:05;4.40;99.90
21508;DHT22;10915;54.352;9.074;2023-11-18T08:00:39;4.40;99.90
21508;DHT22;10915;54.352;9.074;2023-11-18T08:03:07;4.40;99.90
21508;DHT22;10915;54.352;9.074;2023-11-18T08:05:37;4.50;99.90
21508;DHT22;10915;54.352;9.074;2023-11-18T08:08:05;4.50;99.90
21508;DHT22;10915;54.352;9.074;2023-11-18T08:10:31;4.60;99.90
21508;DHT22;10915;54.352;9.074;2023-11-18T08:12:58;4.60;99.90
21508;DHT22;10915;54.352;9.074;2023-11-18T08:15:24;4.60;99.90
21508;DHT22;10915;54.352;9.074;2023-11-18T08:17:52;4.70;99.90
21508;DHT22;10915;54.352;9.074;2023-11-18T08:20:19;4.70;99.90
21508;DHT22;10915;54.352;9.074;2023-11-18T08:22:49;4.80;99.90
21508;DHT22;10915;54.352;9.074;2023-11-18T08:25:14;4.90;99.90
21508;DHT22;10915;54.352;9.074;2023-11-18T08:27:40;4.90;99.90
21508;DHT22;10915;54.352;9.074;2023-11-18T08:30:07;4.90;99.90
21508;DHT22;10915;54.352;9.074;2023-11-18T08:32:37;5.00;99.90
21508;DHT22;10915;54.352;9.074;2023-11-18T08:35:07;5.00;99.90
21508;DHT22;10915;54.352;9.074;2023-11-18T08:37:37;5.10;99.90
21508;DHT22;10915;54.352;9.074;2023-11-18T08:40:06;5.10;99.90
21508;DHT22;10915;54.352;9.074;2023-11-18T08:42:33;5.10;99.90
21508;DHT22;10915;54.352;9.074;2023-11-18T08:44:59;5.00;99.90
21508;DHT22;10915;54.352;9.074;2023-11-18T08:47:26;5.00;99.90
21508;DHT22;10915;54.352;9.074;2023-11-18T08:49:52;5.00;99.90
21508;DHT22;10915;54.352;9.074;2023-11-18T08:52:17;5.00;99.90
21508;DHT22;10915;54.352;9.074;2023-11-18T08:54:44;5.00;99.90
21508;DHT22;10915;54.352;9.074;2023-11-18T08:57:28;5.00;99.90
21508;DHT22;10915;54.352;9.074;2023-11-18T09:00:19;4.80;99.90
21508;DHT22;10915;54.352;9.074;2023-11-18T09:03:03;4.70;99.90
21508;DHT22;10915;54.352;9.074;2023-11-18T09:05:32;4.80;99.90
21508;DHT22;10915;54.352;9.074;2023-11-18T09:07:58;4.90;99.90
21508;DHT22;10915;54.352;9.074;2023-11-18T09:10:26;5.00;99.90
21508;DHT22;10915;54.352;9.074;2023-11-18T09:12:58;5.10;99.90
21508;DHT22;10915;54.352;9.074;2023-11-18T09:15:25;5.10;99.90
21508;DHT22;10915;54.352;9.074;2023-11-18T09:17:50;5.20;99.90
21508;DHT22;10915;54.352;9.074;2023-11-18T09:20:18;5.30;99.90
21508;DHT22;10915;54.352;9.074;2023-11-18T09:22:48;5.40;99.90
21508;DHT22;10915;54.352;9.074;2023-11-18T09:25:14;5.50;99.90
21508;DHT22;10915;54.352;9.074;2023-11-18T09:27:39;5.70;99.90
21508;DHT22;10915;54.352;9.074;2023-11-18T09:30:06;5.80;99.90
21508;DHT22;10915;54.352;9.074;2023-11-18T09:32:42;5.90;99.90
21508;DHT22;10915;54.352;9.074;2023-11-18T09:35:08;5.90;99.90
21508;DHT22;10915;54.352;9.074;2023-11-18T09:37:41;5.90;99.90
21508;DHT22;10915;54.352;9.074;2023-11-18T09:40:11;5.90;99.90
21508;DHT22;10915;54.352;9.074;2023-11-18T09:42:38;5.80;99.90
21508;DHT22;10915;54.352;9.074;2023-11-18T09:45:09;5.80;99.90
21508;DHT22;10915;54.352;9.074;2023-11-18T09:47:43;5.80;99.90
21508;DHT22;10915;54.352;9.074;2023-11-18T09:50:13;5.90;99.90
21508;DHT22;10915;54.352;9.074;2023-11-18T09:52:46;5.90;99.90
21508;DHT22;10915;54.352;9.074;2023-11-18T09:55:25;6.00;99.90
21508;DHT22;10915;54.352;9.074;2023-11-18T09:57:56;6.00;99.90
21508;DHT22;10915;54.352;9.074;2023-11-18T10:00:26;5.90;99.90
21508;DHT22;10915;54.352;9.074;2023-11-18T10:02:58;5.90;99.90
21508;DHT22;10915;54.352;9.074;2023-11-18T10:05:26;6.00;99.90
21508;DHT22;10915;54.352;9.074;2023-11-18T10:07:52;6.00;99.90
21508;DHT22;10915;54.352;9.074;2023-11-18T10:10:19;6.00;99.90
21508;DHT22;10915;54.352;9.074;2023-11-18T10:12:50;6.10;99.90
21508;DHT22;10915;54.352;9.074;2023-11-18T10:15:20;6.00;99.90
21508;DHT22;10915;54.352;9.074;2023-11-18T10:17:49;6.00;99.90
21508;DHT22;10915;54.352;9.074;2023-11-18T10:20:51;6.10;99.90
21508;DHT22;10915;54.352;9.074;2023-11-18T10:23:18;6.20;99.90
21508;DHT22;10915;54.352;9.074;2023-11-18T10:28:34;6.20;99.90
21508;DHT22;10915;54.352;9.074;2023-11-18T10:31:02;6.30;99.90
21508;DHT22;10915;54.352;9.074;2023-11-18T10:33:32;6.30;99.90
21508;DHT22;10915;54.352;9.074;2023-11-18T10:35:59;6.40;99.90
21508;DHT22;10915;54.352;9.074;2023-11-18T10:38:29;6.40;99.90
21508;DHT22;10915;54.352;9.074;2023-11-18T10:40:57;6.60;99.90
21508;DHT22;10915;54.352;9.074;2023-11-18T10:43:23;6.60;99.90
21508;DHT22;10915;54.352;9.074;2023-11-18T10:46:08;6.70;99.90
21508;DHT22;10915;54.352;9.074;2023-11-18T10:48:39;6.70;99.90
21508;DHT22;10915;54.352;9.074;2023-11-18T10:51:07;6.80;99.90
21508;DHT22;10915;54.352;9.074;2023-11-18T10:53:33;6.90;99.90
21508;DHT22;10915;54.352;9.074;2023-11-18T10:56:04;7.00;99.90
21508;DHT22;10915;54.352;9.074;2023-11-18T10:58:37;7.10;99.90
21508;DHT22;10915;54.352;9.074;2023-11-18T11:01:06;7.10;99.90
21508;DHT22;10915;54.352;9.074;2023-11-18T11:03:52;7.10;99.90
21508;DHT22;10915;54.352;9.074;2023-11-18T11:06:22;7.10;99.90
21508;DHT22;10915;54.352;9.074;2023-11-18T11:08:49;7.10;99.90
21508;DHT22;10915;54.352;9.074;2023-11-18T11:11:20;7.20;99.90
21508;DHT22;10915;54.352;9.074;2023-11-18T11:13:49;7.30;99.90
21508;DHT22;10915;54.352;9.074;2023-11-18T11:16:19;7.40;99.90
21508;DHT22;10915;54.352;9.074;2023-11-18T11:18:48;7.50;99.90
21508;DHT22;10915;54.352;9.074;2023-11-18T11:21:21;7.50;99.90
21508;DHT22;10915;54.352;9.074;2023-11-18T11:24:00;7.50;99.90
21508;DHT22;10915;54.352;9.074;2023-11-18T11:26:50;7.50;99.90
21508;DHT22;10915;54.352;9.074;2023-11-18T11:29:36;7.50;99.90
21508;DHT22;10915;54.352;9.074;2023-11-18T11:34:44;7.50;99.90
21508;DHT22;10915;54.352;9.074;2023-11-18T11:37:14;7.50;99.90
21508;DHT22;10915;54.352;9.074;2023-11-18T11:39:41;7.50;99.90
21508;DHT22;10915;54.352;9.074;2023-11-18T11:42:13;7.50;99.90
21508;DHT22;10915;54.352;9.074;2023-11-18T11:44:43;7.50;99.90
21508;DHT22;10915;54.352;9.074;2023-11-18T11:47:10;7.50;99.90
21508;DHT22;10915;54.352;9.074;2023-11-18T11:50:12;7.50;99.90
21508;DHT22;10915;54.352;9.074;2023-11-18T11:52:53;7.50;99.90
21508;DHT22;10915;54.352;9.074;2023-11-18T11:55:33;7.60;99.90
21508;DHT22;10915;54.352;9.074;2023-11-18T11:58:01;7.70;99.90
21508;DHT22;10915;54.352;9.074;2023-11-18T12:00:27;7.70;99.90
21508;DHT22;10915;54.352;9.074;2023-11-18T12:03:01;7.80;99.90
21508;DHT22;10915;54.352;9.074;2023-11-18T12:05:30;7.80;99.90
21508;DHT22;10915;54.352;9.074;2023-11-18T12:07:59;7.80;99.90
21508;DHT22;10915;54.352;9.074;2023-11-18T12:10:30;7.80;99.90
21508;DHT22;10915;54.352;9.074;2023-11-18T12:13:12;7.80;99.90
21508;DHT22;10915;54.352;9.074;2023-11-18T12:18:13;7.90;99.90
21508;DHT22;10915;54.352;9.074;2023-11-18T12:20:44;8.00;99.90
21508;DHT22;10915;54.352;9.074;2023-11-18T12:23:13;8.00;99.90
21508;DHT22;10915;54.352;9.074;2023-11-18T12:25:40;7.90;99.90
21508;DHT22;10915;54.352;9.074;2023-11-18T12:28:16;7.90;99.90
21508;DHT22;10915;54.352;9.074;2023-11-18T12:30:43;7.80;99.90
21508;DHT22;10915;54.352;9.074;2023-11-18T12:33:19;7.80;99.90
21508;DHT22;10915;54.352;9.074;2023-11-18T12:41:39;7.60;99.90
21508;DHT22;10915;54.352;9.074;2023-11-18T12:49:19;7.50;99.90
21508;DHT22;10915;54.352;9.074;2023-11-18T12:51:52;7.40;99.90
21508;DHT22;10915;54.352;9.074;2023-11-18T12:54:22;7.40;99.90
21508;DHT22;10915;54.352;9.074;2023-11-18T12:56:51;7.50;99.90
21508;DHT22;10915;54.352;9.074;2023-11-18T12:59:19;7.50;99.90
21508;DHT22;10915;54.352;9.074;2023-11-18T13:01:50;7.60;99.90
21508;DHT22;10915;54.352;9.074;2023-11-18T13:04:30;7.60;99.90
21508;DHT22;10915;54.352;9.074;2023-11-18T13:06:57;7.60;99.90
21508;DHT22;10915;54.352;9.074;2023-11-18T13:09:23;7.60;99.90
21508;DHT22;10915;54.352;9.074;2023-11-18T13:11:54;7.60;99.90
21508;DHT22;10915;54.352;9.074;2023-11-18T13:14:26;7.60;99.90
21508;DHT22;10915;54.352;9.074;2023-11-18T13:16:56;7.60;99.90
21508;DHT22;10915;54.352;9.074;2023-11-18T13:19:28;7.60;99.90
21508;DHT22;10915;54.352;9.074;2023-11-18T13:22:02;7.50;99.90
21508;DHT22;10915;54.352;9.074;2023-11-18T13:24:42;7.50;99.90
21508;DHT22;10915;54.352;9.074;2023-11-18T13:27:16;7.50;99.90
21508;DHT22;10915;54.352;9.074;2023-11-18T13:29:46;7.50;99.90
21508;DHT22;10915;54.352;9.074;2023-11-18T13:32:16;7.50;99.90
21508;DHT22;10915;54.352;9.074;2023-11-18T13:34:42;7.50;99.90
21508;DHT22;10915;54.352;9.074;2023-11-18T13:37:08;7.40;99.90
21508;DHT22;10915;54.352;9.074;2023-11-18T13:39:36;7.40;99.90
21508;DHT22;10915;54.352;9.074;2023-11-18T13:42:24;7.30;99.90
21508;DHT22;10915;54.352;9.074;2023-11-18T13:44:51;7.20;99.90
21508;DHT22;10915;54.352;9.074;2023-11-18T13:47:18;7.20;99.90
21508;DHT22;10915;54.352;9.074;2023-11-18T13:49:44;7.20;99.90
21508;DHT22;10915;54.352;9.074;2023-11-18T13:52:13;7.10;99.90
21508;DHT22;10915;54.352;9.074;2023-11-18T13:54:41;7.00;99.90
21508;DHT22;10915;54.352;9.074;2023-11-18T13:57:10;7.00;99.90
21508;DHT22;10915;54.352;9.074;2023-11-18T13:59:39;7.00;99.90
21508;DHT22;10915;54.352;9.074;2023-11-18T14:02:09;7.00;99.90
21508;DHT22;10915;54.352;9.074;2023-11-18T14:04:35;7.10;99.90
21508;DHT22;10915;54.352;9.074;2023-11-18T14:07:03;7.00;99.90
21508;DHT22;10915;54.352;9.074;2023-11-18T14:09:32;7.00;99.90
21508;DHT22;10915;54.352;9.074;2023-11-18T14:12:11;7.00;99.90
21508;DHT22;10915;54.352;9.074;2023-11-18T14:14:37;7.00;99.90
21508;DHT22;10915;54.352;9.074;2023-11-18T14:17:03;7.00;99.90
21508;DHT22;10915;54.352;9.074;2023-11-18T14:19:31;6.90;99.90
21508;DHT22;10915;54.352;9.074;2023-11-18T14:21:57;6.90;99.90
21508;DHT22;10915;54.352;9.074;2023-11-18T14:24:23;6.90;99.90
21508;DHT22;10915;54.352;9.074;2023-11-18T14:26:53;6.80;99.90
21508;DHT22;10915;54.352;9.074;2023-11-18T14:29:18;6.90;99.90
21508;DHT22;10915;54.352;9.074;2023-11-18T14:31:45;6.80;99.90
21508;DHT22;10915;54.352;9.074;2023-11-18T14:34:12;6.80;99.90
21508;DHT22;10915;54.352;9.074;2023-11-18T14:36:38;6.80;99.90
21508;DHT22;10915;54.352;9.074;2023-11-18T14:39:04;6.70;99.90
21508;DHT22;10915;54.352;9.074;2023-11-18T14:41:30;6.70;99.90
21508;DHT22;10915;54.352;9.074;2023-11-18T14:43:59;6.70;99.90
21508;DHT22;10915;54.352;9.074;2023-11-18T14:46:27;6.70;99.90
21508;DHT22;10915;54.352;9.074;2023-11-18T14:48:53;6.60;99.90
21508;DHT22;10915;54.352;9.074;2023-11-18T14:51:18;6.60;99.90
21508;DHT22;10915;54.352;9.074;2023-11-18T14:53:44;6.60;99.90
21508;DHT22;10915;54.352;9.074;2023-11-18T14:56:13;6.60;99.90
21508;DHT22;10915;54.352;9.074;2023-11-18T14:58:40;6.60;99.90
21508;DHT22;10915;54.352;9.074;2023-11-18T15:01:05;6.60;99.90
21508;DHT22;10915;54.352;9.074;2023-11-18T15:03:34;6.60;99.90
21508;DHT22;10915;54.352;9.074;2023-11-18T15:06:00;6.60;99.90
21508;DHT22;10915;54.352;9.074;2023-11-18T15:08:26;6.60;99.90
21508;DHT22;10915;54.352;9.074;2023-11-18T15:10:51;6.60;99.90
21508;DHT22;10915;54.352;9.074;2023-11-18T15:13:17;6.50;99.90
21508;DHT22;10915;54.352;9.074;2023-11-18T15:15:44;6.60;99.90
21508;DHT22;10915;54.352;9.074;2023-11-18T15:18:13;6.50;99.90
21508;DHT22;10915;54.352;9.074;2023-11-18T15:20:47;6.60;99.90
21508;DHT22;10915;54.352;9.074;2023-11-18T15:23:13;6.50;99.90
21508;DHT22;10915;54.352;9.074;2023-11-18T15:25:39;6.50;99.90
21508;DHT22;10915;54.352;9.074;2023-11-18T15:28:06;6.50;99.90
21508;DHT22;10915;54.352;9.074;2023-11-18T15:30:39;6.50;99.90
21508;DHT22;10915;54.352;9.074;2023-11-18T15:33:05;6.50;99.90
21508;DHT22;10915;54.352;9.074;2023-11-18T15:35:34;6.40;99.90
21508;DHT22;10915;54.352;9.074;2023-11-18T15:38:03;6.40;99.90
21508;DHT22;10915;54.352;9.074;2023-11-18T15:40:31;6.40;99.90
21508;DHT22;10915;54.352;9.074;2023-11-18T15:42:56;6.40;99.90
21508;DHT22;10915;54.352;9.074;2023-11-18T15:45:22;6.40;99.90
21508;DHT22;10915;54.352;9.074;2023-11-18T15:47:55;6.30;99.90
21508;DHT22;10915;54.352;9.074;2023-11-18T15:50:20;6.30;99.90
21508;DHT22;10915;54.352;9.074;2023-11-18T15:52:48;6.30;99.90
21508;DHT22;10915;54.352;9.074;2023-11-18T15:55:14;6.30;99.90
21508;DHT22;10915;54.352;9.074;2023-11-18T15:57:45;6.30;99.90
21508;DHT22;10915;54.352;9.074;2023-11-18T16:00:18;6.20;99.90
21508;DHT22;10915;54.352;9.074;2023-11-18T16:02:53;6.30;99.90
21508;DHT22;10915;54.352;9.074;2023-11-18T16:05:21;6.30;99.90
21508;DHT22;10915;54.352;9.074;2023-11-18T16:07:51;6.30;99.90
21508;DHT22;10915;54.352;9.074;2023-11-18T16:10:20;6.30;99.90
21508;DHT22;10915;54.352;9.074;2023-11-18T16:12:54;6.30;99.90
21508;DHT22;10915;54.352;9.074;2023-11-18T16:15:21;6.30;99.90